sensor_id;sensor_type;location;lat;lon;timestamp;P1;durP1;ratioP1;P2;durP2;ratioP2
37087;SDS011;23002;52.676;6.432;2023-05-14T00:00:50;11.75;;;6.50;;
37087;SDS011;23002;52.676;6.432;2023-05-14T00:03:17;13.13;;;6.70;;
37087;SDS011;23002;52.676;6.432;2023-05-14T00:05:44;13.68;;;6.57;;
37087;SDS011;23002;52.676;6.432;2023-05-14T00:08:11;11.90;;;6.30;;
37087;SDS011;23002;52.676;6.432;2023-05-14T00:10:38;19.10;;;7.45;;
37087;SDS011;23002;52.676;6.432;2023-05-14T00:13:05;22.33;;;8.20;;
37087;SDS011;23002;52.676;6.432;2023-05-14T00:15:32;17.38;;;7.10;;
37087;SDS011;23002;52.676;6.432;2023-05-14T00:18:00;17.63;;;7.47;;
37087;SDS011;23002;52.676;6.432;2023-05-14T00:20:27;16.45;;;7.70;;
37087;SDS011;23002;52.676;6.432;2023-05-14T00:22:54;14.63;;;7.07;;
37087;SDS011;23002;52.676;6.432;2023-05-14T00:25:21;20.50;;;8.52;;
37087;SDS011;23002;52.676;6.432;2023-05-14T00:27:48;16.20;;;7.45;;
37087;SDS011;23002;52.676;6.432;2023-05-14T00:30:15;18.75;;;8.00;;
37087;SDS011;23002;52.676;6.432;2023-05-14T00:32:42;16.27;;;7.07;;
37087;SDS011;23002;52.676;6.432;2023-05-14T00:35:10;15.18;;;7.38;;
37087;SDS011;23002;52.676;6.432;2023-05-14T00:37:37;15.90;;;8.15;;
37087;SDS011;23002;52.676;6.432;2023-05-14T00:40:05;12.40;;;7.10;;
37087;SDS011;23002;52.676;6.432;2023-05-14T00:42:33;12.80;;;8.05;;
37087;SDS011;23002;52.676;6.432;2023-05-14T00:45:00;13.98;;;6.57;;
37087;SDS011;23002;52.676;6.432;2023-05-14T00:47:27;15.70;;;7.72;;
37087;SDS011;23002;52.676;6.432;2023-05-14T00:49:55;13.95;;;6.85;;
37087;SDS011;23002;52.676;6.432;2023-05-14T00:52:22;15.98;;;6.90;;
37087;SDS011;23002;52.676;6.432;2023-05-14T00:54:49;12.93;;;7.45;;
37087;SDS011;23002;52.676;6.432;2023-05-14T00:57:16;16.25;;;7.63;;
37087;SDS011;23002;52.676;6.432;2023-05-14T00:59:44;14.68;;;7.60;;
37087;SDS011;23002;52.676;6.432;2023-05-14T01:02:11;15.85;;;8.02;;
37087;SDS011;23002;52.676;6.432;2023-05-14T01:04:38;14.50;;;7.72;;
37087;SDS011;23002;52.676;6.432;2023-05-14T01:12:17;19.15;;;8.20;;
37087;SDS011;23002;52.676;6.432;2023-05-14T01:14:56;15.57;;;7.30;;
37087;SDS011;23002;52.676;6.432;2023-05-14T01:17:28;15.80;;;7.28;;
37087;SDS011;23002;52.676;6.432;2023-05-14T01:19:55;13.35;;;7.43;;
37087;SDS011;23002;52.676;6.432;2023-05-14T01:22:22;12.00;;;7.10;;
37087;SDS011;23002;52.676;6.432;2023-05-14T01:24:49;18.17;;;7.85;;
37087;SDS011;23002;52.676;6.432;2023-05-14T01:27:21;14.65;;;7.05;;
37087;SDS011;23002;52.676;6.432;2023-05-14T01:29:52;18.40;;;7.90;;
37087;SDS011;23002;52.676;6.432;2023-05-14T01:32:21;14.00;;;7.97;;
37087;SDS011;23002;52.676;6.432;2023-05-14T01:34:49;19.55;;;7.38;;
37087;SDS011;23002;52.676;6.432;2023-05-14T01:37:16;15.52;;;8.07;;
37087;SDS011;23002;52.676;6.432;2023-05-14T01:39:44;13.30;;;6.63;;
37087;SDS011;23002;52.676;6.432;2023-05-14T01:42:11;14.65;;;7.47;;
37087;SDS011;23002;52.676;6.432;2023-05-14T01:44:39;14.65;;;7.15;;
37087;SDS011;23002;52.676;6.432;2023-05-14T01:47:06;18.05;;;8.15;;
37087;SDS011;23002;52.676;6.432;2023-05-14T01:49:33;16.55;;;7.35;;
37087;SDS011;23002;52.676;6.432;2023-05-14T01:52:02;17.75;;;8.52;;
37087;SDS011;23002;52.676;6.432;2023-05-14T01:54:29;16.25;;;7.03;;
37087;SDS011;23002;52.676;6.432;2023-05-14T01:56:56;21.23;;;8.40;;
37087;SDS011;23002;52.676;6.432;2023-05-14T01:59:23;17.08;;;8.60;;
37087;SDS011;23002;52.676;6.432;2023-05-14T02:01:50;19.30;;;7.90;;
37087;SDS011;23002;52.676;6.432;2023-05-14T02:04:18;16.20;;;7.43;;
37087;SDS011;23002;52.676;6.432;2023-05-14T02:06:45;17.77;;;8.27;;
37087;SDS011;23002;52.676;6.432;2023-05-14T02:09:12;18.23;;;8.80;;
37087;SDS011;23002;52.676;6.432;2023-05-14T02:11:40;20.02;;;7.60;;
37087;SDS011;23002;52.676;6.432;2023-05-14T02:14:07;17.33;;;6.60;;
37087;SDS011;23002;52.676;6.432;2023-05-14T02:16:34;17.10;;;8.38;;
37087;SDS011;23002;52.676;6.432;2023-05-14T02:19:01;15.70;;;7.95;;
37087;SDS011;23002;52.676;6.432;2023-05-14T02:21:28;17.90;;;8.15;;
37087;SDS011;23002;52.676;6.432;2023-05-14T02:23:55;17.08;;;8.65;;
37087;SDS011;23002;52.676;6.432;2023-05-14T02:26:22;18.75;;;9.00;;
37087;SDS011;23002;52.676;6.432;2023-05-14T02:28:50;16.23;;;8.52;;
37087;SDS011;23002;52.676;6.432;2023-05-14T02:31:17;19.52;;;9.27;;
37087;SDS011;23002;52.676;6.432;2023-05-14T02:33:44;19.60;;;9.45;;
37087;SDS011;23002;52.676;6.432;2023-05-14T02:36:11;20.67;;;9.23;;
37087;SDS011;23002;52.676;6.432;2023-05-14T02:38:38;18.60;;;9.57;;
37087;SDS011;23002;52.676;6.432;2023-05-14T02:41:06;17.83;;;8.07;;
37087;SDS011;23002;52.676;6.432;2023-05-14T02:43:33;19.73;;;9.15;;
37087;SDS011;23002;52.676;6.432;2023-05-14T02:46:00;17.83;;;9.35;;
37087;SDS011;23002;52.676;6.432;2023-05-14T02:48:27;22.98;;;9.63;;
37087;SDS011;23002;52.676;6.432;2023-05-14T02:50:54;25.60;;;8.55;;
37087;SDS011;23002;52.676;6.432;2023-05-14T02:53:21;18.08;;;9.23;;
37087;SDS011;23002;52.676;6.432;2023-05-14T02:55:48;24.63;;;9.30;;
37087;SDS011;23002;52.676;6.432;2023-05-14T02:58:15;21.05;;;9.63;;
37087;SDS011;23002;52.676;6.432;2023-05-14T03:00:42;21.30;;;10.00;;
37087;SDS011;23002;52.676;6.432;2023-05-14T03:03:10;17.25;;;8.80;;
37087;SDS011;23002;52.676;6.432;2023-05-14T03:05:38;22.98;;;10.02;;
37087;SDS011;23002;52.676;6.432;2023-05-14T03:08:05;18.60;;;8.32;;
37087;SDS011;23002;52.676;6.432;2023-05-14T03:10:32;25.02;;;10.30;;
37087;SDS011;23002;52.676;6.432;2023-05-14T03:12:59;22.13;;;10.07;;
37087;SDS011;23002;52.676;6.432;2023-05-14T03:15:26;20.80;;;10.88;;
37087;SDS011;23002;52.676;6.432;2023-05-14T03:17:53;24.27;;;11.00;;
37087;SDS011;23002;52.676;6.432;2023-05-14T03:20:22;24.02;;;10.02;;
37087;SDS011;23002;52.676;6.432;2023-05-14T03:22:50;23.40;;;10.20;;
37087;SDS011;23002;52.676;6.432;2023-05-14T03:25:17;20.55;;;9.85;;
37087;SDS011;23002;52.676;6.432;2023-05-14T03:27:44;22.20;;;10.13;;
37087;SDS011;23002;52.676;6.432;2023-05-14T03:30:11;32.42;;;11.57;;
37087;SDS011;23002;52.676;6.432;2023-05-14T03:32:38;23.20;;;11.07;;
37087;SDS011;23002;52.676;6.432;2023-05-14T03:35:06;24.90;;;11.10;;
37087;SDS011;23002;52.676;6.432;2023-05-14T03:37:33;20.45;;;10.02;;
37087;SDS011;23002;52.676;6.432;2023-05-14T03:40:00;23.20;;;10.50;;
37087;SDS011;23002;52.676;6.432;2023-05-14T03:42:27;19.58;;;10.15;;
37087;SDS011;23002;52.676;6.432;2023-05-14T03:44:54;20.38;;;10.55;;
37087;SDS011;23002;52.676;6.432;2023-05-14T03:47:22;20.95;;;10.43;;
37087;SDS011;23002;52.676;6.432;2023-05-14T03:49:49;19.88;;;8.82;;
37087;SDS011;23002;52.676;6.432;2023-05-14T03:52:16;20.48;;;9.77;;
37087;SDS011;23002;52.676;6.432;2023-05-14T03:54:43;23.80;;;9.75;;
37087;SDS011;23002;52.676;6.432;2023-05-14T03:57:10;21.60;;;9.95;;
37087;SDS011;23002;52.676;6.432;2023-05-14T03:59:37;21.10;;;10.27;;
37087;SDS011;23002;52.676;6.432;2023-05-14T04:02:05;22.13;;;9.73;;
37087;SDS011;23002;52.676;6.432;2023-05-14T04:04:33;22.05;;;9.55;;
37087;SDS011;23002;52.676;6.432;2023-05-14T04:07:00;20.10;;;9.43;;
37087;SDS011;23002;52.676;6.432;2023-05-14T04:09:27;19.08;;;9.52;;
37087;SDS011;23002;52.676;6.432;2023-05-14T04:11:54;22.90;;;10.45;;
37087;SDS011;23002;52.676;6.432;2023-05-14T04:14:21;20.17;;;9.50;;
37087;SDS011;23002;52.676;6.432;2023-05-14T04:16:48;22.13;;;9.73;;
37087;SDS011;23002;52.676;6.432;2023-05-14T04:19:15;26.63;;;10.35;;
37087;SDS011;23002;52.676;6.432;2023-05-14T04:21:43;22.55;;;10.50;;
37087;SDS011;23002;52.676;6.432;2023-05-14T04:24:10;18.85;;;9.55;;
37087;SDS011;23002;52.676;6.432;2023-05-14T04:26:37;21.20;;;9.88;;
37087;SDS011;23002;52.676;6.432;2023-05-14T04:29:04;21.55;;;10.90;;
37087;SDS011;23002;52.676;6.432;2023-05-14T04:31:31;21.58;;;9.00;;
37087;SDS011;23002;52.676;6.432;2023-05-14T04:33:58;24.25;;;10.23;;
37087;SDS011;23002;52.676;6.432;2023-05-14T04:36:26;19.50;;;8.43;;
37087;SDS011;23002;52.676;6.432;2023-05-14T04:38:53;24.92;;;10.02;;
37087;SDS011;23002;52.676;6.432;2023-05-14T04:41:21;23.27;;;10.25;;
37087;SDS011;23002;52.676;6.432;2023-05-14T04:43:48;23.27;;;9.82;;
37087;SDS011;23002;52.676;6.432;2023-05-14T04:46:15;23.67;;;9.88;;
37087;SDS011;23002;52.676;6.432;2023-05-14T04:48:43;25.85;;;11.00;;
37087;SDS011;23002;52.676;6.432;2023-05-14T04:51:10;20.40;;;9.10;;
37087;SDS011;23002;52.676;6.432;2023-05-14T04:53:37;25.02;;;9.75;;
37087;SDS011;23002;52.676;6.432;2023-05-14T04:56:04;22.38;;;9.80;;
37087;SDS011;23002;52.676;6.432;2023-05-14T04:58:31;23.27;;;11.35;;
37087;SDS011;23002;52.676;6.432;2023-05-14T05:01:01;22.27;;;10.10;;
37087;SDS011;23002;52.676;6.432;2023-05-14T05:03:28;22.05;;;9.80;;
37087;SDS011;23002;52.676;6.432;2023-05-14T05:05:56;21.38;;;9.65;;
37087;SDS011;23002;52.676;6.432;2023-05-14T05:08:23;20.17;;;9.40;;
37087;SDS011;23002;52.676;6.432;2023-05-14T05:10:50;20.13;;;9.90;;
37087;SDS011;23002;52.676;6.432;2023-05-14T05:13:17;19.48;;;9.13;;
37087;SDS011;23002;52.676;6.432;2023-05-14T05:15:44;17.15;;;7.78;;
37087;SDS011;23002;52.676;6.432;2023-05-14T05:18:12;19.08;;;8.50;;
37087;SDS011;23002;52.676;6.432;2023-05-14T05:20:39;17.30;;;8.10;;
37087;SDS011;23002;52.676;6.432;2023-05-14T05:23:06;13.20;;;6.78;;
37087;SDS011;23002;52.676;6.432;2023-05-14T05:25:33;13.45;;;6.88;;
37087;SDS011;23002;52.676;6.432;2023-05-14T05:28:00;11.65;;;6.18;;
37087;SDS011;23002;52.676;6.432;2023-05-14T05:30:27;14.55;;;5.50;;
37087;SDS011;23002;52.676;6.432;2023-05-14T05:32:55;11.88;;;6.00;;
37087;SDS011;23002;52.676;6.432;2023-05-14T05:35:22;11.38;;;4.90;;
37087;SDS011;23002;52.676;6.432;2023-05-14T05:37:50;8.65;;;4.45;;
37087;SDS011;23002;52.676;6.432;2023-05-14T05:40:17;11.55;;;6.03;;
37087;SDS011;23002;52.676;6.432;2023-05-14T05:42:44;8.48;;;4.35;;
37087;SDS011;23002;52.676;6.432;2023-05-14T05:45:11;8.07;;;4.95;;
37087;SDS011;23002;52.676;6.432;2023-05-14T05:47:38;10.25;;;4.50;;
37087;SDS011;23002;52.676;6.432;2023-05-14T05:50:06;9.00;;;4.40;;
37087;SDS011;23002;52.676;6.432;2023-05-14T05:52:33;9.00;;;4.38;;
37087;SDS011;23002;52.676;6.432;2023-05-14T05:55:00;7.82;;;3.63;;
37087;SDS011;23002;52.676;6.432;2023-05-14T05:57:27;6.38;;;3.72;;
37087;SDS011;23002;52.676;6.432;2023-05-14T05:59:54;10.00;;;4.05;;
37087;SDS011;23002;52.676;6.432;2023-05-14T06:02:22;6.80;;;3.65;;
37087;SDS011;23002;52.676;6.432;2023-05-14T06:04:50;9.05;;;4.32;;
37087;SDS011;23002;52.676;6.432;2023-05-14T06:07:18;7.45;;;4.18;;
37087;SDS011;23002;52.676;6.432;2023-05-14T06:09:45;16.63;;;4.82;;
37087;SDS011;23002;52.676;6.432;2023-05-14T06:12:12;7.43;;;3.63;;
37087;SDS011;23002;52.676;6.432;2023-05-14T06:14:39;8.55;;;3.72;;
37087;SDS011;23002;52.676;6.432;2023-05-14T06:17:06;7.55;;;4.22;;
37087;SDS011;23002;52.676;6.432;2023-05-14T06:19:34;8.93;;;4.25;;
37087;SDS011;23002;52.676;6.432;2023-05-14T06:22:01;7.38;;;4.20;;
37087;SDS011;23002;52.676;6.432;2023-05-14T06:24:28;8.32;;;4.07;;
37087;SDS011;23002;52.676;6.432;2023-05-14T06:26:55;8.90;;;3.90;;
37087;SDS011;23002;52.676;6.432;2023-05-14T06:29:22;10.98;;;4.03;;
37087;SDS011;23002;52.676;6.432;2023-05-14T06:31:49;7.78;;;3.78;;
37087;SDS011;23002;52.676;6.432;2023-05-14T06:34:16;8.70;;;3.83;;
37087;SDS011;23002;52.676;6.432;2023-05-14T06:36:43;8.50;;;4.13;;
37087;SDS011;23002;52.676;6.432;2023-05-14T06:39:10;8.95;;;4.18;;
37087;SDS011;23002;52.676;6.432;2023-05-14T06:41:38;9.80;;;4.07;;
37087;SDS011;23002;52.676;6.432;2023-05-14T06:44:05;10.90;;;4.10;;
37087;SDS011;23002;52.676;6.432;2023-05-14T06:46:32;9.13;;;3.75;;
37087;SDS011;23002;52.676;6.432;2023-05-14T06:48:59;9.05;;;4.32;;
37087;SDS011;23002;52.676;6.432;2023-05-14T06:51:26;8.43;;;4.75;;
37087;SDS011;23002;52.676;6.432;2023-05-14T06:53:54;5.57;;;3.40;;
37087;SDS011;23002;52.676;6.432;2023-05-14T06:56:21;6.82;;;3.85;;
37087;SDS011;23002;52.676;6.432;2023-05-14T06:58:48;7.78;;;3.85;;
37087;SDS011;23002;52.676;6.432;2023-05-14T07:01:16;6.20;;;4.00;;
37087;SDS011;23002;52.676;6.432;2023-05-14T07:03:43;10.02;;;4.60;;
37087;SDS011;23002;52.676;6.432;2023-05-14T07:06:10;7.55;;;4.13;;
37087;SDS011;23002;52.676;6.432;2023-05-14T07:08:38;7.45;;;4.10;;
37087;SDS011;23002;52.676;6.432;2023-05-14T07:11:06;6.55;;;3.78;;
37087;SDS011;23002;52.676;6.432;2023-05-14T07:13:33;9.38;;;4.20;;
37087;SDS011;23002;52.676;6.432;2023-05-14T07:16:00;7.78;;;4.28;;
37087;SDS011;23002;52.676;6.432;2023-05-14T07:18:27;5.72;;;3.58;;
37087;SDS011;23002;52.676;6.432;2023-05-14T07:20:54;8.68;;;4.43;;
37087;SDS011;23002;52.676;6.432;2023-05-14T07:23:21;7.70;;;3.80;;
37087;SDS011;23002;52.676;6.432;2023-05-14T07:25:48;6.22;;;3.88;;
37087;SDS011;23002;52.676;6.432;2023-05-14T07:28:15;7.18;;;4.05;;
37087;SDS011;23002;52.676;6.432;2023-05-14T07:30:42;7.28;;;4.07;;
37087;SDS011;23002;52.676;6.432;2023-05-14T07:33:09;7.68;;;4.35;;
37087;SDS011;23002;52.676;6.432;2023-05-14T07:35:37;6.18;;;4.53;;
37087;SDS011;23002;52.676;6.432;2023-05-14T07:38:04;10.55;;;4.00;;
37087;SDS011;23002;52.676;6.432;2023-05-14T07:40:31;11.30;;;4.65;;
37087;SDS011;23002;52.676;6.432;2023-05-14T07:42:58;10.05;;;4.10;;
37087;SDS011;23002;52.676;6.432;2023-05-14T07:45:25;10.02;;;4.25;;
37087;SDS011;23002;52.676;6.432;2023-05-14T07:47:52;10.15;;;4.00;;
37087;SDS011;23002;52.676;6.432;2023-05-14T07:50:20;11.05;;;4.15;;
37087;SDS011;23002;52.676;6.432;2023-05-14T07:52:47;7.65;;;4.00;;
37087;SDS011;23002;52.676;6.432;2023-05-14T07:55:14;9.73;;;4.18;;
37087;SDS011;23002;52.676;6.432;2023-05-14T07:57:42;6.55;;;3.70;;
37087;SDS011;23002;52.676;6.432;2023-05-14T08:00:09;9.02;;;4.40;;
37087;SDS011;23002;52.676;6.432;2023-05-14T08:02:37;8.35;;;3.85;;
37087;SDS011;23002;52.676;6.432;2023-05-14T08:05:04;11.23;;;3.70;;
37087;SDS011;23002;52.676;6.432;2023-05-14T08:07:31;8.85;;;3.63;;
37087;SDS011;23002;52.676;6.432;2023-05-14T08:09:59;8.73;;;3.85;;
37087;SDS011;23002;52.676;6.432;2023-05-14T08:12:26;7.13;;;3.55;;
37087;SDS011;23002;52.676;6.432;2023-05-14T08:14:54;6.70;;;2.90;;
37087;SDS011;23002;52.676;6.432;2023-05-14T08:17:21;6.32;;;3.17;;
37087;SDS011;23002;52.676;6.432;2023-05-14T08:19:48;7.32;;;3.50;;
37087;SDS011;23002;52.676;6.432;2023-05-14T08:22:15;7.55;;;2.90;;
37087;SDS011;23002;52.676;6.432;2023-05-14T08:24:43;5.82;;;2.90;;
37087;SDS011;23002;52.676;6.432;2023-05-14T08:27:10;6.97;;;3.50;;
37087;SDS011;23002;52.676;6.432;2023-05-14T08:29:37;6.50;;;3.15;;
37087;SDS011;23002;52.676;6.432;2023-05-14T08:32:04;6.75;;;3.40;;
37087;SDS011;23002;52.676;6.432;2023-05-14T08:34:48;5.82;;;2.22;;
37087;SDS011;23002;52.676;6.432;2023-05-14T08:37:16;5.30;;;2.55;;
37087;SDS011;23002;52.676;6.432;2023-05-14T08:39:43;7.13;;;3.22;;
37087;SDS011;23002;52.676;6.432;2023-05-14T08:42:11;7.15;;;3.03;;
37087;SDS011;23002;52.676;6.432;2023-05-14T08:44:42;7.47;;;3.15;;
37087;SDS011;23002;52.676;6.432;2023-05-14T08:47:11;8.27;;;3.15;;
37087;SDS011;23002;52.676;6.432;2023-05-14T08:49:42;7.60;;;2.60;;
37087;SDS011;23002;52.676;6.432;2023-05-14T08:52:10;5.95;;;2.95;;
37087;SDS011;23002;52.676;6.432;2023-05-14T08:54:38;6.47;;;3.17;;
37087;SDS011;23002;52.676;6.432;2023-05-14T08:57:07;7.07;;;3.55;;
37087;SDS011;23002;52.676;6.432;2023-05-14T08:59:35;6.45;;;2.75;;
37087;SDS011;23002;52.676;6.432;2023-05-14T09:02:02;6.85;;;2.63;;
37087;SDS011;23002;52.676;6.432;2023-05-14T09:04:31;8.57;;;3.30;;
37087;SDS011;23002;52.676;6.432;2023-05-14T09:07:00;6.05;;;3.10;;
37087;SDS011;23002;52.676;6.432;2023-05-14T09:09:27;8.32;;;3.10;;
37087;SDS011;23002;52.676;6.432;2023-05-14T09:11:55;7.88;;;3.08;;
37087;SDS011;23002;52.676;6.432;2023-05-14T09:14:22;6.97;;;3.05;;
37087;SDS011;23002;52.676;6.432;2023-05-14T09:16:49;7.97;;;2.92;;
37087;SDS011;23002;52.676;6.432;2023-05-14T09:19:17;4.70;;;2.97;;
37087;SDS011;23002;52.676;6.432;2023-05-14T09:21:45;7.05;;;2.88;;
37087;SDS011;23002;52.676;6.432;2023-05-14T09:24:23;7.05;;;3.28;;
37087;SDS011;23002;52.676;6.432;2023-05-14T09:26:54;7.15;;;2.85;;
37087;SDS011;23002;52.676;6.432;2023-05-14T09:29:25;8.30;;;3.00;;
37087;SDS011;23002;52.676;6.432;2023-05-14T09:31:53;4.85;;;2.83;;
37087;SDS011;23002;52.676;6.432;2023-05-14T09:37:01;6.55;;;3.33;;
37087;SDS011;23002;52.676;6.432;2023-05-14T09:39:29;5.15;;;3.08;;
37087;SDS011;23002;52.676;6.432;2023-05-14T09:41:56;11.07;;;3.13;;
37087;SDS011;23002;52.676;6.432;2023-05-14T09:44:24;7.93;;;3.30;;
37087;SDS011;23002;52.676;6.432;2023-05-14T09:46:51;9.25;;;3.92;;
37087;SDS011;23002;52.676;6.432;2023-05-14T09:49:19;6.85;;;3.15;;
37087;SDS011;23002;52.676;6.432;2023-05-14T09:51:50;8.00;;;3.03;;
37087;SDS011;23002;52.676;6.432;2023-05-14T09:54:17;6.53;;;3.00;;
37087;SDS011;23002;52.676;6.432;2023-05-14T09:56:44;8.57;;;3.53;;
37087;SDS011;23002;52.676;6.432;2023-05-14T09:59:11;6.03;;;2.92;;
37087;SDS011;23002;52.676;6.432;2023-05-14T10:01:39;7.20;;;3.28;;
37087;SDS011;23002;52.676;6.432;2023-05-14T10:04:09;4.53;;;2.42;;
37087;SDS011;23002;52.676;6.432;2023-05-14T10:06:37;7.57;;;3.20;;
37087;SDS011;23002;52.676;6.432;2023-05-14T10:09:06;5.75;;;3.10;;
37087;SDS011;23002;52.676;6.432;2023-05-14T10:11:37;8.27;;;3.03;;
37087;SDS011;23002;52.676;6.432;2023-05-14T10:14:10;7.97;;;2.75;;
37087;SDS011;23002;52.676;6.432;2023-05-14T10:16:47;4.93;;;3.15;;
37087;SDS011;23002;52.676;6.432;2023-05-14T10:19:15;6.97;;;3.45;;
37087;SDS011;23002;52.676;6.432;2023-05-14T10:21:44;6.07;;;2.95;;
37087;SDS011;23002;52.676;6.432;2023-05-14T10:24:11;6.45;;;3.05;;
37087;SDS011;23002;52.676;6.432;2023-05-14T10:26:38;5.60;;;2.97;;
37087;SDS011;23002;52.676;6.432;2023-05-14T10:29:10;6.55;;;3.13;;
37087;SDS011;23002;52.676;6.432;2023-05-14T10:31:50;7.25;;;3.83;;
37087;SDS011;23002;52.676;6.432;2023-05-14T10:37:07;6.15;;;2.67;;
37087;SDS011;23002;52.676;6.432;2023-05-14T10:39:41;7.63;;;2.70;;
37087;SDS011;23002;52.676;6.432;2023-05-14T10:42:09;7.53;;;3.40;;
37087;SDS011;23002;52.676;6.432;2023-05-14T10:44:42;4.25;;;2.78;;
37087;SDS011;23002;52.676;6.432;2023-05-14T10:47:12;5.07;;;2.80;;
37087;SDS011;23002;52.676;6.432;2023-05-14T10:49:40;6.22;;;2.95;;
37087;SDS011;23002;52.676;6.432;2023-05-14T10:52:09;5.53;;;2.90;;
37087;SDS011;23002;52.676;6.432;2023-05-14T10:54:37;3.80;;;2.70;;
37087;SDS011;23002;52.676;6.432;2023-05-14T10:57:08;5.45;;;2.88;;
37087;SDS011;23002;52.676;6.432;2023-05-14T10:59:36;7.25;;;2.85;;
37087;SDS011;23002;52.676;6.432;2023-05-14T11:02:15;4.13;;;2.50;;
37087;SDS011;23002;52.676;6.432;2023-05-14T11:05:04;6.60;;;2.75;;
37087;SDS011;23002;52.676;6.432;2023-05-14T11:07:32;4.28;;;2.65;;
37087;SDS011;23002;52.676;6.432;2023-05-14T11:10:03;6.60;;;2.80;;
37087;SDS011;23002;52.676;6.432;2023-05-14T11:12:35;5.43;;;2.40;;
37087;SDS011;23002;52.676;6.432;2023-05-14T11:15:06;5.15;;;2.78;;
37087;SDS011;23002;52.676;6.432;2023-05-14T11:17:34;5.72;;;2.15;;
37087;SDS011;23002;52.676;6.432;2023-05-14T11:20:02;3.13;;;2.17;;
37087;SDS011;23002;52.676;6.432;2023-05-14T11:22:33;3.75;;;1.92;;
37087;SDS011;23002;52.676;6.432;2023-05-14T11:25:01;3.85;;;2.38;;
37087;SDS011;23002;52.676;6.432;2023-05-14T11:27:28;4.43;;;2.40;;
37087;SDS011;23002;52.676;6.432;2023-05-14T11:29:56;4.18;;;2.58;;
37087;SDS011;23002;52.676;6.432;2023-05-14T11:32:26;3.90;;;2.00;;
37087;SDS011;23002;52.676;6.432;2023-05-14T11:34:53;6.05;;;2.33;;
37087;SDS011;23002;52.676;6.432;2023-05-14T11:37:21;5.50;;;2.08;;
37087;SDS011;23002;52.676;6.432;2023-05-14T11:39:51;4.78;;;2.15;;
37087;SDS011;23002;52.676;6.432;2023-05-14T11:42:19;3.22;;;2.17;;
37087;SDS011;23002;52.676;6.432;2023-05-14T11:44:48;7.15;;;2.03;;
37087;SDS011;23002;52.676;6.432;2023-05-14T11:47:15;6.03;;;2.40;;
37087;SDS011;23002;52.676;6.432;2023-05-14T11:49:43;5.47;;;2.50;;
37087;SDS011;23002;52.676;6.432;2023-05-14T11:52:12;7.45;;;2.47;;
37087;SDS011;23002;52.676;6.432;2023-05-14T11:54:40;4.10;;;1.92;;
37087;SDS011;23002;52.676;6.432;2023-05-14T11:57:11;3.72;;;2.00;;
37087;SDS011;23002;52.676;6.432;2023-05-14T12:02:09;4.70;;;1.90;;
37087;SDS011;23002;52.676;6.432;2023-05-14T12:04:36;4.07;;;1.88;;
37087;SDS011;23002;52.676;6.432;2023-05-14T12:07:11;3.67;;;1.60;;
37087;SDS011;23002;52.676;6.432;2023-05-14T12:09:39;3.03;;;1.55;;
37087;SDS011;23002;52.676;6.432;2023-05-14T12:12:10;4.15;;;1.60;;
37087;SDS011;23002;52.676;6.432;2023-05-14T12:14:39;2.80;;;1.55;;
37087;SDS011;23002;52.676;6.432;2023-05-14T12:17:25;3.42;;;1.77;;
37087;SDS011;23002;52.676;6.432;2023-05-14T12:19:52;5.80;;;1.98;;
37087;SDS011;23002;52.676;6.432;2023-05-14T12:22:21;5.32;;;1.60;;
37087;SDS011;23002;52.676;6.432;2023-05-14T12:24:55;5.93;;;1.35;;
37087;SDS011;23002;52.676;6.432;2023-05-14T12:27:23;4.25;;;1.73;;
37087;SDS011;23002;52.676;6.432;2023-05-14T12:30:01;5.88;;;1.65;;
37087;SDS011;23002;52.676;6.432;2023-05-14T12:32:49;4.90;;;2.05;;
37087;SDS011;23002;52.676;6.432;2023-05-14T12:35:19;4.10;;;1.80;;
37087;SDS011;23002;52.676;6.432;2023-05-14T12:37:48;4.25;;;1.52;;
37087;SDS011;23002;52.676;6.432;2023-05-14T12:40:15;7.45;;;2.40;;
37087;SDS011;23002;52.676;6.432;2023-05-14T12:42:42;5.40;;;1.80;;
37087;SDS011;23002;52.676;6.432;2023-05-14T12:45:09;5.70;;;2.22;;
37087;SDS011;23002;52.676;6.432;2023-05-14T12:47:37;4.47;;;1.98;;
37087;SDS011;23002;52.676;6.432;2023-05-14T12:50:04;2.80;;;1.80;;
37087;SDS011;23002;52.676;6.432;2023-05-14T12:52:31;5.97;;;1.92;;
37087;SDS011;23002;52.676;6.432;2023-05-14T12:55:05;4.47;;;2.15;;
37087;SDS011;23002;52.676;6.432;2023-05-14T12:57:32;4.93;;;2.30;;
37087;SDS011;23002;52.676;6.432;2023-05-14T13:00:00;3.50;;;1.80;;
37087;SDS011;23002;52.676;6.432;2023-05-14T13:02:31;4.25;;;2.00;;
37087;SDS011;23002;52.676;6.432;2023-05-14T13:05:08;3.38;;;1.52;;
37087;SDS011;23002;52.676;6.432;2023-05-14T13:07:39;3.88;;;1.42;;
37087;SDS011;23002;52.676;6.432;2023-05-14T13:10:06;3.63;;;1.90;;
37087;SDS011;23002;52.676;6.432;2023-05-14T13:12:34;2.58;;;1.55;;
37087;SDS011;23002;52.676;6.432;2023-05-14T13:15:01;5.68;;;1.73;;
37087;SDS011;23002;52.676;6.432;2023-05-14T13:17:29;5.72;;;1.60;;
37087;SDS011;23002;52.676;6.432;2023-05-14T13:19:56;3.10;;;1.40;;
37087;SDS011;23002;52.676;6.432;2023-05-14T13:22:23;2.97;;;1.50;;
37087;SDS011;23002;52.676;6.432;2023-05-14T13:24:50;2.70;;;1.50;;
37087;SDS011;23002;52.676;6.432;2023-05-14T13:27:17;3.25;;;1.60;;
37087;SDS011;23002;52.676;6.432;2023-05-14T13:29:44;3.75;;;2.10;;
37087;SDS011;23002;52.676;6.432;2023-05-14T13:32:11;5.50;;;1.75;;
37087;SDS011;23002;52.676;6.432;2023-05-14T13:34:38;5.90;;;2.00;;
37087;SDS011;23002;52.676;6.432;2023-05-14T13:37:05;3.00;;;1.60;;
37087;SDS011;23002;52.676;6.432;2023-05-14T13:39:32;3.88;;;1.55;;
37087;SDS011;23002;52.676;6.432;2023-05-14T13:42:00;2.95;;;1.65;;
37087;SDS011;23002;52.676;6.432;2023-05-14T13:44:27;5.70;;;2.10;;
37087;SDS011;23002;52.676;6.432;2023-05-14T13:46:54;4.40;;;1.80;;
37087;SDS011;23002;52.676;6.432;2023-05-14T13:49:21;4.00;;;1.73;;
37087;SDS011;23002;52.676;6.432;2023-05-14T13:51:48;3.78;;;1.77;;
37087;SDS011;23002;52.676;6.432;2023-05-14T13:54:16;4.38;;;1.55;;
37087;SDS011;23002;52.676;6.432;2023-05-14T13:56:43;2.80;;;1.73;;
37087;SDS011;23002;52.676;6.432;2023-05-14T13:59:10;4.35;;;1.60;;
37087;SDS011;23002;52.676;6.432;2023-05-14T14:01:38;4.93;;;1.60;;
37087;SDS011;23002;52.676;6.432;2023-05-14T14:04:05;3.95;;;1.65;;
37087;SDS011;23002;52.676;6.432;2023-05-14T14:06:32;4.30;;;1.77;;
37087;SDS011;23002;52.676;6.432;2023-05-14T14:08:59;2.95;;;1.70;;
37087;SDS011;23002;52.676;6.432;2023-05-14T14:11:26;4.97;;;1.63;;
37087;SDS011;23002;52.676;6.432;2023-05-14T14:13:53;3.55;;;1.67;;
37087;SDS011;23002;52.676;6.432;2023-05-14T14:16:21;2.47;;;1.80;;
37087;SDS011;23002;52.676;6.432;2023-05-14T14:18:48;6.65;;;2.00;;
37087;SDS011;23002;52.676;6.432;2023-05-14T14:21:15;4.85;;;1.60;;
37087;SDS011;23002;52.676;6.432;2023-05-14T14:23:46;4.18;;;2.22;;
37087;SDS011;23002;52.676;6.432;2023-05-14T14:26:13;5.63;;;2.50;;
37087;SDS011;23002;52.676;6.432;2023-05-14T14:28:40;4.72;;;2.20;;
37087;SDS011;23002;52.676;6.432;2023-05-14T14:31:08;5.82;;;1.90;;
37087;SDS011;23002;52.676;6.432;2023-05-14T14:33:35;4.45;;;1.42;;
37087;SDS011;23002;52.676;6.432;2023-05-14T14:36:02;2.55;;;1.60;;
37087;SDS011;23002;52.676;6.432;2023-05-14T14:38:29;3.20;;;1.77;;
37087;SDS011;23002;52.676;6.432;2023-05-14T14:40:56;3.78;;;1.58;;
37087;SDS011;23002;52.676;6.432;2023-05-14T14:43:24;3.33;;;1.88;;
37087;SDS011;23002;52.676;6.432;2023-05-14T14:45:51;3.65;;;1.77;;
37087;SDS011;23002;52.676;6.432;2023-05-14T14:48:31;2.40;;;1.38;;
37087;SDS011;23002;52.676;6.432;2023-05-14T14:51:06;3.13;;;1.80;;
37087;SDS011;23002;52.676;6.432;2023-05-14T14:53:34;3.45;;;1.92;;
37087;SDS011;23002;52.676;6.432;2023-05-14T14:56:02;5.32;;;2.00;;
37087;SDS011;23002;52.676;6.432;2023-05-14T14:58:29;4.00;;;1.80;;